sensor_id;sensor_type;location;lat;lon;timestamp;P1;durP1;ratioP1;P2;durP2;ratioP2
19414;SDS011;9843;48.882;12.592;2023-03-04T00:02:16;32.67;;;20.73;;
19414;SDS011;9843;48.882;12.592;2023-03-04T00:04:48;23.00;;;17.90;;
19414;SDS011;9843;48.882;12.592;2023-03-04T00:07:15;27.77;;;19.50;;
19414;SDS011;9843;48.882;12.592;2023-03-04T00:09:43;28.63;;;19.33;;
19414;SDS011;9843;48.882;12.592;2023-03-04T00:12:10;23.07;;;18.77;;
19414;SDS011;9843;48.882;12.592;2023-03-04T00:14:37;26.07;;;18.87;;
19414;SDS011;9843;48.882;12.592;2023-03-04T00:17:04;25.57;;;18.60;;
19414;SDS011;9843;48.882;12.592;2023-03-04T00:19:33;25.40;;;20.63;;
19414;SDS011;9843;48.882;12.592;2023-03-04T00:22:01;22.80;;;18.07;;
19414;SDS011;9843;48.882;12.592;2023-03-04T00:24:28;24.67;;;18.60;;
19414;SDS011;9843;48.882;12.592;2023-03-04T00:26:55;26.07;;;17.57;;
19414;SDS011;9843;48.882;12.592;2023-03-04T00:29:22;29.63;;;20.20;;
19414;SDS011;9843;48.882;12.592;2023-03-04T00:31:49;22.57;;;17.93;;
19414;SDS011;9843;48.882;12.592;2023-03-04T00:34:16;27.87;;;18.20;;
19414;SDS011;9843;48.882;12.592;2023-03-04T00:36:44;20.53;;;15.53;;
19414;SDS011;9843;48.882;12.592;2023-03-04T00:39:11;24.13;;;16.60;;
19414;SDS011;9843;48.882;12.592;2023-03-04T00:41:38;21.33;;;15.10;;
19414;SDS011;9843;48.882;12.592;2023-03-04T00:44:06;23.23;;;14.97;;
19414;SDS011;9843;48.882;12.592;2023-03-04T00:46:33;22.20;;;16.93;;
19414;SDS011;9843;48.882;12.592;2023-03-04T00:49:00;21.63;;;18.57;;
19414;SDS011;9843;48.882;12.592;2023-03-04T00:51:27;23.47;;;18.53;;
19414;SDS011;9843;48.882;12.592;2023-03-04T00:53:55;27.57;;;16.90;;
19414;SDS011;9843;48.882;12.592;2023-03-04T00:56:23;23.13;;;16.60;;
19414;SDS011;9843;48.882;12.592;2023-03-04T00:58:50;18.07;;;15.57;;
19414;SDS011;9843;48.882;12.592;2023-03-04T01:01:17;23.30;;;16.17;;
19414;SDS011;9843;48.882;12.592;2023-03-04T01:03:44;24.57;;;14.23;;
19414;SDS011;9843;48.882;12.592;2023-03-04T01:06:11;25.23;;;15.27;;
19414;SDS011;9843;48.882;12.592;2023-03-04T01:08:38;18.30;;;14.77;;
19414;SDS011;9843;48.882;12.592;2023-03-04T01:11:07;19.37;;;15.37;;
19414;SDS011;9843;48.882;12.592;2023-03-04T01:13:34;19.90;;;16.20;;
19414;SDS011;9843;48.882;12.592;2023-03-04T01:16:01;17.97;;;15.17;;
19414;SDS011;9843;48.882;12.592;2023-03-04T01:18:29;25.60;;;16.17;;
19414;SDS011;9843;48.882;12.592;2023-03-04T01:20:56;24.43;;;17.27;;
19414;SDS011;9843;48.882;12.592;2023-03-04T01:23:23;20.87;;;15.40;;
19414;SDS011;9843;48.882;12.592;2023-03-04T01:25:50;21.80;;;15.00;;
19414;SDS011;9843;48.882;12.592;2023-03-04T01:28:18;25.37;;;16.90;;
19414;SDS011;9843;48.882;12.592;2023-03-04T01:30:45;27.83;;;16.43;;
19414;SDS011;9843;48.882;12.592;2023-03-04T01:33:12;22.83;;;15.47;;
19414;SDS011;9843;48.882;12.592;2023-03-04T01:35:40;20.17;;;15.00;;
19414;SDS011;9843;48.882;12.592;2023-03-04T01:38:07;20.80;;;16.40;;
19414;SDS011;9843;48.882;12.592;2023-03-04T01:40:34;23.40;;;17.63;;
19414;SDS011;9843;48.882;12.592;2023-03-04T01:43:01;22.37;;;15.60;;
19414;SDS011;9843;48.882;12.592;2023-03-04T01:45:29;22.93;;;15.93;;
19414;SDS011;9843;48.882;12.592;2023-03-04T01:47:57;20.10;;;15.57;;
19414;SDS011;9843;48.882;12.592;2023-03-04T01:50:26;27.13;;;17.07;;
19414;SDS011;9843;48.882;12.592;2023-03-04T01:52:54;21.37;;;15.50;;
19414;SDS011;9843;48.882;12.592;2023-03-04T01:55:21;23.50;;;15.17;;
19414;SDS011;9843;48.882;12.592;2023-03-04T01:57:49;23.53;;;16.10;;
19414;SDS011;9843;48.882;12.592;2023-03-04T02:00:18;22.27;;;15.67;;
19414;SDS011;9843;48.882;12.592;2023-03-04T02:02:47;22.23;;;17.50;;
19414;SDS011;9843;48.882;12.592;2023-03-04T02:05:15;19.80;;;17.67;;
19414;SDS011;9843;48.882;12.592;2023-03-04T02:07:42;24.13;;;16.23;;
19414;SDS011;9843;48.882;12.592;2023-03-04T02:10:10;20.33;;;15.17;;
19414;SDS011;9843;48.882;12.592;2023-03-04T02:12:37;22.00;;;15.57;;
19414;SDS011;9843;48.882;12.592;2023-03-04T02:15:05;23.73;;;18.33;;
19414;SDS011;9843;48.882;12.592;2023-03-04T02:17:33;23.13;;;17.03;;
19414;SDS011;9843;48.882;12.592;2023-03-04T02:20:04;23.37;;;16.37;;
19414;SDS011;9843;48.882;12.592;2023-03-04T02:22:34;23.47;;;17.30;;
19414;SDS011;9843;48.882;12.592;2023-03-04T02:25:05;22.17;;;14.90;;
19414;SDS011;9843;48.882;12.592;2023-03-04T02:27:34;25.50;;;17.13;;
19414;SDS011;9843;48.882;12.592;2023-03-04T02:30:01;23.10;;;16.73;;
19414;SDS011;9843;48.882;12.592;2023-03-04T02:32:29;18.83;;;16.37;;
19414;SDS011;9843;48.882;12.592;2023-03-04T02:34:56;21.80;;;14.13;;
19414;SDS011;9843;48.882;12.592;2023-03-04T02:37:23;25.77;;;16.93;;
19414;SDS011;9843;48.882;12.592;2023-03-04T02:39:50;25.50;;;16.07;;
19414;SDS011;9843;48.882;12.592;2023-03-04T02:42:17;21.30;;;17.37;;
19414;SDS011;9843;48.882;12.592;2023-03-04T02:44:46;17.87;;;15.97;;
19414;SDS011;9843;48.882;12.592;2023-03-04T02:47:15;26.80;;;19.50;;
19414;SDS011;9843;48.882;12.592;2023-03-04T02:49:42;20.63;;;17.07;;
19414;SDS011;9843;48.882;12.592;2023-03-04T02:52:12;25.10;;;17.83;;
19414;SDS011;9843;48.882;12.592;2023-03-04T02:54:39;25.20;;;19.17;;
19414;SDS011;9843;48.882;12.592;2023-03-04T02:57:07;19.47;;;15.57;;
19414;SDS011;9843;48.882;12.592;2023-03-04T02:59:34;22.77;;;15.70;;
19414;SDS011;9843;48.882;12.592;2023-03-04T03:02:03;25.23;;;17.33;;
19414;SDS011;9843;48.882;12.592;2023-03-04T03:04:30;20.23;;;16.23;;
19414;SDS011;9843;48.882;12.592;2023-03-04T03:06:57;25.07;;;18.03;;
19414;SDS011;9843;48.882;12.592;2023-03-04T03:09:24;22.20;;;18.87;;
19414;SDS011;9843;48.882;12.592;2023-03-04T03:11:51;22.83;;;17.17;;
19414;SDS011;9843;48.882;12.592;2023-03-04T03:14:18;21.93;;;17.97;;
19414;SDS011;9843;48.882;12.592;2023-03-04T03:16:46;26.03;;;17.87;;
19414;SDS011;9843;48.882;12.592;2023-03-04T03:19:14;29.47;;;18.47;;
19414;SDS011;9843;48.882;12.592;2023-03-04T03:21:41;27.40;;;21.07;;
19414;SDS011;9843;48.882;12.592;2023-03-04T03:24:08;29.97;;;19.27;;
19414;SDS011;9843;48.882;12.592;2023-03-04T03:26:35;24.57;;;19.50;;
19414;SDS011;9843;48.882;12.592;2023-03-04T03:29:03;23.93;;;18.43;;
19414;SDS011;9843;48.882;12.592;2023-03-04T03:31:30;24.77;;;19.87;;
19414;SDS011;9843;48.882;12.592;2023-03-04T03:33:58;30.77;;;19.40;;
19414;SDS011;9843;48.882;12.592;2023-03-04T03:36:26;26.33;;;19.87;;
19414;SDS011;9843;48.882;12.592;2023-03-04T03:38:53;31.43;;;20.80;;
19414;SDS011;9843;48.882;12.592;2023-03-04T03:41:20;27.97;;;19.30;;
19414;SDS011;9843;48.882;12.592;2023-03-04T03:43:47;27.40;;;19.93;;
19414;SDS011;9843;48.882;12.592;2023-03-04T03:46:14;27.13;;;18.70;;
19414;SDS011;9843;48.882;12.592;2023-03-04T03:48:41;28.60;;;19.97;;
19414;SDS011;9843;48.882;12.592;2023-03-04T03:51:08;37.80;;;20.33;;
19414;SDS011;9843;48.882;12.592;2023-03-04T03:53:37;29.20;;;19.40;;
19414;SDS011;9843;48.882;12.592;2023-03-04T03:56:04;30.77;;;22.03;;
19414;SDS011;9843;48.882;12.592;2023-03-04T03:58:31;25.97;;;17.13;;
19414;SDS011;9843;48.882;12.592;2023-03-04T04:00:58;28.57;;;19.27;;
19414;SDS011;9843;48.882;12.592;2023-03-04T04:03:25;28.80;;;22.70;;
19414;SDS011;9843;48.882;12.592;2023-03-04T04:05:53;28.07;;;19.67;;
19414;SDS011;9843;48.882;12.592;2023-03-04T04:08:20;29.73;;;22.17;;
19414;SDS011;9843;48.882;12.592;2023-03-04T04:10:48;28.20;;;19.73;;
19414;SDS011;9843;48.882;12.592;2023-03-04T04:13:15;33.97;;;20.20;;
19414;SDS011;9843;48.882;12.592;2023-03-04T04:15:42;27.77;;;18.80;;
19414;SDS011;9843;48.882;12.592;2023-03-04T04:18:10;33.63;;;22.40;;
19414;SDS011;9843;48.882;12.592;2023-03-04T04:20:37;30.60;;;20.63;;
19414;SDS011;9843;48.882;12.592;2023-03-04T04:23:04;33.50;;;20.33;;
19414;SDS011;9843;48.882;12.592;2023-03-04T04:25:31;27.87;;;20.33;;
19414;SDS011;9843;48.882;12.592;2023-03-04T04:27:59;31.60;;;21.30;;
19414;SDS011;9843;48.882;12.592;2023-03-04T04:30:26;33.93;;;20.10;;
19414;SDS011;9843;48.882;12.592;2023-03-04T04:32:53;29.23;;;19.40;;
19414;SDS011;9843;48.882;12.592;2023-03-04T04:35:21;29.67;;;21.70;;
19414;SDS011;9843;48.882;12.592;2023-03-04T04:37:48;31.20;;;20.17;;
19414;SDS011;9843;48.882;12.592;2023-03-04T04:40:15;29.27;;;18.67;;
19414;SDS011;9843;48.882;12.592;2023-03-04T04:42:42;31.23;;;20.23;;
19414;SDS011;9843;48.882;12.592;2023-03-04T04:45:10;28.53;;;19.67;;
19414;SDS011;9843;48.882;12.592;2023-03-04T04:47:37;36.47;;;21.93;;
19414;SDS011;9843;48.882;12.592;2023-03-04T04:50:05;29.33;;;17.33;;
19414;SDS011;9843;48.882;12.592;2023-03-04T04:52:32;29.43;;;22.07;;
19414;SDS011;9843;48.882;12.592;2023-03-04T04:54:59;29.83;;;18.03;;
19414;SDS011;9843;48.882;12.592;2023-03-04T04:57:26;30.37;;;20.27;;
19414;SDS011;9843;48.882;12.592;2023-03-04T04:59:54;31.23;;;20.33;;
19414;SDS011;9843;48.882;12.592;2023-03-04T05:02:22;31.13;;;21.50;;
19414;SDS011;9843;48.882;12.592;2023-03-04T05:04:49;26.87;;;20.10;;
19414;SDS011;9843;48.882;12.592;2023-03-04T05:07:16;30.87;;;20.67;;
19414;SDS011;9843;48.882;12.592;2023-03-04T05:09:43;25.77;;;16.77;;
19414;SDS011;9843;48.882;12.592;2023-03-04T05:12:10;21.97;;;18.37;;
19414;SDS011;9843;48.882;12.592;2023-03-04T05:14:37;29.47;;;20.93;;
19414;SDS011;9843;48.882;12.592;2023-03-04T05:17:04;28.33;;;17.93;;
19414;SDS011;9843;48.882;12.592;2023-03-04T05:19:33;25.90;;;19.07;;
19414;SDS011;9843;48.882;12.592;2023-03-04T05:22:00;29.90;;;20.57;;
19414;SDS011;9843;48.882;12.592;2023-03-04T05:24:27;23.93;;;18.63;;
19414;SDS011;9843;48.882;12.592;2023-03-04T05:26:54;23.40;;;18.63;;
19414;SDS011;9843;48.882;12.592;2023-03-04T05:29:21;28.47;;;18.13;;
19414;SDS011;9843;48.882;12.592;2023-03-04T05:31:48;25.37;;;19.53;;
19414;SDS011;9843;48.882;12.592;2023-03-04T05:34:15;34.77;;;20.20;;
19414;SDS011;9843;48.882;12.592;2023-03-04T05:36:44;31.03;;;20.57;;
19414;SDS011;9843;48.882;12.592;2023-03-04T05:39:11;32.37;;;21.23;;
19414;SDS011;9843;48.882;12.592;2023-03-04T05:41:38;30.07;;;21.67;;
19414;SDS011;9843;48.882;12.592;2023-03-04T05:44:05;28.10;;;22.17;;
19414;SDS011;9843;48.882;12.592;2023-03-04T05:46:32;26.87;;;19.87;;
19414;SDS011;9843;48.882;12.592;2023-03-04T05:48:59;29.77;;;22.07;;
19414;SDS011;9843;48.882;12.592;2023-03-04T05:51:26;36.77;;;21.60;;
19414;SDS011;9843;48.882;12.592;2023-03-04T05:53:55;35.63;;;23.83;;
19414;SDS011;9843;48.882;12.592;2023-03-04T05:56:22;31.80;;;20.70;;
19414;SDS011;9843;48.882;12.592;2023-03-04T05:58:49;30.23;;;23.30;;
19414;SDS011;9843;48.882;12.592;2023-03-04T06:01:16;40.57;;;21.83;;
19414;SDS011;9843;48.882;12.592;2023-03-04T06:03:43;35.27;;;20.93;;
19414;SDS011;9843;48.882;12.592;2023-03-04T06:06:12;26.07;;;20.90;;
19414;SDS011;9843;48.882;12.592;2023-03-04T06:08:39;29.40;;;18.73;;
19414;SDS011;9843;48.882;12.592;2023-03-04T06:11:07;31.47;;;20.27;;
19414;SDS011;9843;48.882;12.592;2023-03-04T06:13:34;30.33;;;21.17;;
19414;SDS011;9843;48.882;12.592;2023-03-04T06:16:02;31.60;;;19.63;;
19414;SDS011;9843;48.882;12.592;2023-03-04T06:18:29;32.37;;;21.67;;
19414;SDS011;9843;48.882;12.592;2023-03-04T06:20:56;34.07;;;19.87;;
19414;SDS011;9843;48.882;12.592;2023-03-04T06:23:23;29.70;;;21.93;;
19414;SDS011;9843;48.882;12.592;2023-03-04T06:25:51;24.23;;;17.90;;
19414;SDS011;9843;48.882;12.592;2023-03-04T06:28:20;29.10;;;18.97;;
19414;SDS011;9843;48.882;12.592;2023-03-04T06:30:47;29.27;;;20.10;;
19414;SDS011;9843;48.882;12.592;2023-03-04T06:33:14;27.57;;;19.87;;
19414;SDS011;9843;48.882;12.592;2023-03-04T06:35:41;20.47;;;17.30;;
19414;SDS011;9843;48.882;12.592;2023-03-04T06:38:08;31.53;;;20.47;;
19414;SDS011;9843;48.882;12.592;2023-03-04T06:40:35;26.40;;;17.93;;
19414;SDS011;9843;48.882;12.592;2023-03-04T06:43:02;32.40;;;20.50;;
19414;SDS011;9843;48.882;12.592;2023-03-04T06:45:31;27.80;;;17.53;;
19414;SDS011;9843;48.882;12.592;2023-03-04T06:47:58;26.23;;;18.13;;
19414;SDS011;9843;48.882;12.592;2023-03-04T06:50:25;19.90;;;16.47;;
19414;SDS011;9843;48.882;12.592;2023-03-04T06:52:52;23.70;;;16.90;;
19414;SDS011;9843;48.882;12.592;2023-03-04T06:55:21;23.80;;;18.83;;
19414;SDS011;9843;48.882;12.592;2023-03-04T06:57:49;19.57;;;15.43;;
19414;SDS011;9843;48.882;12.592;2023-03-04T07:00:16;30.23;;;19.17;;
19414;SDS011;9843;48.882;12.592;2023-03-04T07:02:45;26.87;;;20.40;;
19414;SDS011;9843;48.882;12.592;2023-03-04T07:05:12;23.03;;;16.47;;
19414;SDS011;9843;48.882;12.592;2023-03-04T07:07:39;22.17;;;16.50;;
19414;SDS011;9843;48.882;12.592;2023-03-04T07:10:06;21.10;;;14.60;;
19414;SDS011;9843;48.882;12.592;2023-03-04T07:12:34;22.87;;;18.47;;
19414;SDS011;9843;48.882;12.592;2023-03-04T07:15:01;24.63;;;18.03;;
19414;SDS011;9843;48.882;12.592;2023-03-04T07:17:28;23.87;;;17.77;;
19414;SDS011;9843;48.882;12.592;2023-03-04T07:19:56;25.10;;;18.57;;
19414;SDS011;9843;48.882;12.592;2023-03-04T07:22:23;17.37;;;15.43;;
19414;SDS011;9843;48.882;12.592;2023-03-04T07:24:50;22.40;;;15.50;;
19414;SDS011;9843;48.882;12.592;2023-03-04T07:27:17;20.40;;;14.30;;
19414;SDS011;9843;48.882;12.592;2023-03-04T07:29:44;18.53;;;14.27;;
19414;SDS011;9843;48.882;12.592;2023-03-04T07:32:11;24.90;;;16.17;;
19414;SDS011;9843;48.882;12.592;2023-03-04T07:34:38;17.90;;;12.87;;
19414;SDS011;9843;48.882;12.592;2023-03-04T07:37:07;22.23;;;15.80;;
19414;SDS011;9843;48.882;12.592;2023-03-04T07:39:34;22.70;;;13.53;;
19414;SDS011;9843;48.882;12.592;2023-03-04T07:42:01;23.10;;;16.03;;
19414;SDS011;9843;48.882;12.592;2023-03-04T07:44:28;26.37;;;16.63;;
19414;SDS011;9843;48.882;12.592;2023-03-04T07:46:55;21.93;;;17.67;;
19414;SDS011;9843;48.882;12.592;2023-03-04T07:49:22;23.57;;;15.57;;
19414;SDS011;9843;48.882;12.592;2023-03-04T07:51:49;19.97;;;17.27;;
19414;SDS011;9843;48.882;12.592;2023-03-04T07:54:18;17.67;;;13.77;;
19414;SDS011;9843;48.882;12.592;2023-03-04T07:56:45;22.47;;;15.03;;
19414;SDS011;9843;48.882;12.592;2023-03-04T07:59:12;16.30;;;13.50;;
19414;SDS011;9843;48.882;12.592;2023-03-04T08:01:39;20.43;;;14.77;;
19414;SDS011;9843;48.882;12.592;2023-03-04T08:04:07;19.40;;;13.47;;
19414;SDS011;9843;48.882;12.592;2023-03-04T08:06:34;22.93;;;15.13;;
19414;SDS011;9843;48.882;12.592;2023-03-04T08:09:02;17.43;;;13.30;;
19414;SDS011;9843;48.882;12.592;2023-03-04T08:11:31;18.63;;;12.00;;
19414;SDS011;9843;48.882;12.592;2023-03-04T08:13:58;16.47;;;12.10;;
19414;SDS011;9843;48.882;12.592;2023-03-04T08:16:26;17.07;;;13.20;;
19414;SDS011;9843;48.882;12.592;2023-03-04T08:18:55;16.17;;;12.77;;
19414;SDS011;9843;48.882;12.592;2023-03-04T08:21:23;15.00;;;12.13;;
19414;SDS011;9843;48.882;12.592;2023-03-04T08:23:50;20.63;;;14.57;;
19414;SDS011;9843;48.882;12.592;2023-03-04T08:26:18;20.90;;;12.50;;
19414;SDS011;9843;48.882;12.592;2023-03-04T08:28:47;22.80;;;13.83;;
19414;SDS011;9843;48.882;12.592;2023-03-04T08:31:16;14.50;;;12.07;;
19414;SDS011;9843;48.882;12.592;2023-03-04T08:33:43;23.13;;;13.07;;
19414;SDS011;9843;48.882;12.592;2023-03-04T08:36:10;21.83;;;12.67;;
19414;SDS011;9843;48.882;12.592;2023-03-04T08:38:41;18.67;;;11.33;;
19414;SDS011;9843;48.882;12.592;2023-03-04T08:41:08;17.27;;;12.10;;
19414;SDS011;9843;48.882;12.592;2023-03-04T08:43:36;20.83;;;14.00;;
19414;SDS011;9843;48.882;12.592;2023-03-04T08:46:06;16.27;;;12.23;;
19414;SDS011;9843;48.882;12.592;2023-03-04T08:48:33;16.30;;;11.80;;
19414;SDS011;9843;48.882;12.592;2023-03-04T08:51:00;17.17;;;12.40;;
19414;SDS011;9843;48.882;12.592;2023-03-04T08:53:27;23.17;;;14.97;;
19414;SDS011;9843;48.882;12.592;2023-03-04T08:55:55;18.13;;;12.37;;
19414;SDS011;9843;48.882;12.592;2023-03-04T08:58:22;15.83;;;13.23;;
19414;SDS011;9843;48.882;12.592;2023-03-04T09:00:50;14.30;;;11.13;;
19414;SDS011;9843;48.882;12.592;2023-03-04T09:03:22;15.60;;;11.50;;
19414;SDS011;9843;48.882;12.592;2023-03-04T09:05:50;16.27;;;10.60;;
19414;SDS011;9843;48.882;12.592;2023-03-04T09:08:17;12.17;;;9.57;;
19414;SDS011;9843;48.882;12.592;2023-03-04T09:10:46;12.67;;;10.07;;
19414;SDS011;9843;48.882;12.592;2023-03-04T09:13:14;12.37;;;10.00;;
19414;SDS011;9843;48.882;12.592;2023-03-04T09:15:45;9.97;;;8.87;;
19414;SDS011;9843;48.882;12.592;2023-03-04T09:18:12;13.77;;;9.33;;
19414;SDS011;9843;48.882;12.592;2023-03-04T09:20:41;12.13;;;10.33;;
19414;SDS011;9843;48.882;12.592;2023-03-04T09:23:09;11.10;;;9.30;;
19414;SDS011;9843;48.882;12.592;2023-03-04T09:25:38;9.80;;;8.43;;
19414;SDS011;9843;48.882;12.592;2023-03-04T09:28:08;17.27;;;10.17;;
19414;SDS011;9843;48.882;12.592;2023-03-04T09:30:50;10.30;;;8.60;;
19414;SDS011;9843;48.882;12.592;2023-03-04T09:33:17;15.40;;;11.43;;
19414;SDS011;9843;48.882;12.592;2023-03-04T09:35:46;15.33;;;9.13;;
19414;SDS011;9843;48.882;12.592;2023-03-04T09:38:17;12.47;;;9.60;;
19414;SDS011;9843;48.882;12.592;2023-03-04T09:40:46;12.83;;;9.73;;
19414;SDS011;9843;48.882;12.592;2023-03-04T09:43:16;12.20;;;10.93;;
19414;SDS011;9843;48.882;12.592;2023-03-04T09:45:47;14.43;;;10.43;;
19414;SDS011;9843;48.882;12.592;2023-03-04T09:48:15;18.63;;;12.40;;
19414;SDS011;9843;48.882;12.592;2023-03-04T09:50:56;15.83;;;12.27;;
19414;SDS011;9843;48.882;12.592;2023-03-04T09:53:32;21.63;;;12.97;;
19414;SDS011;9843;48.882;12.592;2023-03-04T09:56:01;20.07;;;13.13;;
19414;SDS011;9843;48.882;12.592;2023-03-04T09:58:38;19.60;;;13.23;;
19414;SDS011;9843;48.882;12.592;2023-03-04T10:01:09;15.23;;;12.83;;
19414;SDS011;9843;48.882;12.592;2023-03-04T10:03:40;18.00;;;14.03;;
19414;SDS011;9843;48.882;12.592;2023-03-04T10:06:10;13.97;;;12.37;;
19414;SDS011;9843;48.882;12.592;2023-03-04T10:08:39;19.23;;;13.97;;
19414;SDS011;9843;48.882;12.592;2023-03-04T10:11:12;19.33;;;13.23;;
19414;SDS011;9843;48.882;12.592;2023-03-04T10:13:42;18.20;;;14.23;;
19414;SDS011;9843;48.882;12.592;2023-03-04T10:16:11;18.93;;;14.13;;
19414;SDS011;9843;48.882;12.592;2023-03-04T10:18:41;29.47;;;16.27;;
19414;SDS011;9843;48.882;12.592;2023-03-04T10:21:13;19.30;;;13.80;;
19414;SDS011;9843;48.882;12.592;2023-03-04T10:23:43;20.63;;;14.57;;
19414;SDS011;9843;48.882;12.592;2023-03-04T10:26:12;18.90;;;16.03;;
19414;SDS011;9843;48.882;12.592;2023-03-04T10:28:39;17.43;;;15.07;;
19414;SDS011;9843;48.882;12.592;2023-03-04T10:31:08;21.60;;;14.53;;
19414;SDS011;9843;48.882;12.592;2023-03-04T10:33:38;24.00;;;16.47;;
19414;SDS011;9843;48.882;12.592;2023-03-04T10:36:11;21.30;;;14.63;;
19414;SDS011;9843;48.882;12.592;2023-03-04T10:38:43;18.13;;;14.00;;
19414;SDS011;9843;48.882;12.592;2023-03-04T10:41:11;15.10;;;12.63;;
19414;SDS011;9843;48.882;12.592;2023-03-04T10:43:38;19.57;;;15.97;;
19414;SDS011;9843;48.882;12.592;2023-03-04T10:46:09;18.33;;;14.37;;
19414;SDS011;9843;48.882;12.592;2023-03-04T10:48:37;19.87;;;14.13;;
19414;SDS011;9843;48.882;12.592;2023-03-04T10:51:10;24.57;;;18.40;;
19414;SDS011;9843;48.882;12.592;2023-03-04T10:53:38;22.73;;;17.53;;
19414;SDS011;9843;48.882;12.592;2023-03-04T10:58:50;24.47;;;16.50;;
19414;SDS011;9843;48.882;12.592;2023-03-04T11:01:17;20.07;;;14.90;;
19414;SDS011;9843;48.882;12.592;2023-03-04T11:03:49;22.10;;;13.23;;
19414;SDS011;9843;48.882;12.592;2023-03-04T11:06:18;22.37;;;14.77;;
19414;SDS011;9843;48.882;12.592;2023-03-04T11:08:55;34.33;;;17.60;;
19414;SDS011;9843;48.882;12.592;2023-03-04T11:11:23;20.30;;;15.53;;
19414;SDS011;9843;48.882;12.592;2023-03-04T11:13:52;24.03;;;17.63;;
19414;SDS011;9843;48.882;12.592;2023-03-04T11:16:25;21.03;;;15.67;;
19414;SDS011;9843;48.882;12.592;2023-03-04T11:18:54;36.33;;;22.00;;
19414;SDS011;9843;48.882;12.592;2023-03-04T11:21:23;19.97;;;14.87;;
19414;SDS011;9843;48.882;12.592;2023-03-04T11:23:51;23.00;;;14.80;;
19414;SDS011;9843;48.882;12.592;2023-03-04T11:26:20;29.20;;;18.43;;
19414;SDS011;9843;48.882;12.592;2023-03-04T11:28:50;22.70;;;18.33;;
19414;SDS011;9843;48.882;12.592;2023-03-04T11:31:21;22.23;;;17.07;;
19414;SDS011;9843;48.882;12.592;2023-03-04T11:33:50;23.53;;;15.37;;
19414;SDS011;9843;48.882;12.592;2023-03-04T11:36:25;19.77;;;15.97;;
19414;SDS011;9843;48.882;12.592;2023-03-04T11:38:55;17.30;;;12.50;;
19414;SDS011;9843;48.882;12.592;2023-03-04T11:41:24;23.93;;;15.90;;
19414;SDS011;9843;48.882;12.592;2023-03-04T11:43:52;22.37;;;14.43;;
19414;SDS011;9843;48.882;12.592;2023-03-04T11:46:27;19.77;;;14.13;;
19414;SDS011;9843;48.882;12.592;2023-03-04T11:48:58;22.60;;;16.37;;
19414;SDS011;9843;48.882;12.592;2023-03-04T11:51:31;15.67;;;14.07;;
19414;SDS011;9843;48.882;12.592;2023-03-04T11:54:12;22.87;;;15.73;;
19414;SDS011;9843;48.882;12.592;2023-03-04T11:56:42;13.63;;;11.90;;
19414;SDS011;9843;48.882;12.592;2023-03-04T11:59:15;17.87;;;13.33;;
19414;SDS011;9843;48.882;12.592;2023-03-04T12:01:49;21.83;;;15.37;;
19414;SDS011;9843;48.882;12.592;2023-03-04T12:04:27;17.13;;;15.07;;
19414;SDS011;9843;48.882;12.592;2023-03-04T12:07:02;17.67;;;13.67;;
19414;SDS011;9843;48.882;12.592;2023-03-04T12:09:39;21.40;;;15.83;;
19414;SDS011;9843;48.882;12.592;2023-03-04T12:12:13;19.07;;;13.07;;
19414;SDS011;9843;48.882;12.592;2023-03-04T12:14:46;23.67;;;13.67;;
19414;SDS011;9843;48.882;12.592;2023-03-04T12:17:21;20.07;;;14.87;;
19414;SDS011;9843;48.882;12.592;2023-03-04T12:19:54;18.57;;;13.83;;
19414;SDS011;9843;48.882;12.592;2023-03-04T12:22:27;17.80;;;12.93;;
19414;SDS011;9843;48.882;12.592;2023-03-04T12:25:05;18.90;;;14.43;;
19414;SDS011;9843;48.882;12.592;2023-03-04T12:27:34;20.90;;;15.10;;
19414;SDS011;9843;48.882;12.592;2023-03-04T12:30:04;22.70;;;15.80;;
19414;SDS011;9843;48.882;12.592;2023-03-04T12:32:35;18.57;;;13.60;;
19414;SDS011;9843;48.882;12.592;2023-03-04T12:35:13;28.43;;;16.00;;
19414;SDS011;9843;48.882;12.592;2023-03-04T12:37:55;19.83;;;15.63;;
19414;SDS011;9843;48.882;12.592;2023-03-04T12:40:25;17.63;;;15.23;;
19414;SDS011;9843;48.882;12.592;2023-03-04T12:43:02;18.73;;;14.73;;
19414;SDS011;9843;48.882;12.592;2023-03-04T12:45:36;21.30;;;15.03;;
19414;SDS011;9843;48.882;12.592;2023-03-04T12:48:11;19.00;;;14.83;;
19414;SDS011;9843;48.882;12.592;2023-03-04T12:50:46;22.17;;;14.53;;
19414;SDS011;9843;48.882;12.592;2023-03-04T12:53:19;20.30;;;15.67;;
19414;SDS011;9843;48.882;12.592;2023-03-04T12:55:47;19.10;;;15.97;;
19414;SDS011;9843;48.882;12.592;2023-03-04T12:58:17;27.20;;;16.10;;
19414;SDS011;9843;48.882;12.592;2023-03-04T13:00:50;18.40;;;15.93;;
19414;SDS011;9843;48.882;12.592;2023-03-04T13:03:22;21.13;;;16.27;;
19414;SDS011;9843;48.882;12.592;2023-03-04T13:05:55;20.50;;;14.73;;
19414;SDS011;9843;48.882;12.592;2023-03-04T13:08:29;21.30;;;17.03;;
19414;SDS011;9843;48.882;12.592;2023-03-04T13:11:01;20.60;;;16.50;;
19414;SDS011;9843;48.882;12.592;2023-03-04T13:13:39;26.30;;;18.50;;
19414;SDS011;9843;48.882;12.592;2023-03-04T13:16:26;21.90;;;15.97;;
19414;SDS011;9843;48.882;12.592;2023-03-04T13:18:55;20.23;;;14.43;;
19414;SDS011;9843;48.882;12.592;2023-03-04T13:21:22;23.23;;;16.70;;
19414;SDS011;9843;48.882;12.592;2023-03-04T13:23:50;22.93;;;17.50;;
19414;SDS011;9843;48.882;12.592;2023-03-04T13:26:30;22.03;;;16.60;;
19414;SDS011;9843;48.882;12.592;2023-03-04T13:29:09;24.00;;;16.87;;
19414;SDS011;9843;48.882;12.592;2023-03-04T13:37:11;28.30;;;19.87;;
19414;SDS011;9843;48.882;12.592;2023-03-04T13:42:36;27.80;;;18.07;;
19414;SDS011;9843;48.882;12.592;2023-03-04T13:45:22;26.97;;;18.23;;
19414;SDS011;9843;48.882;12.592;2023-03-04T13:47:51;26.33;;;19.10;;
19414;SDS011;9843;48.882;12.592;2023-03-04T13:50:38;24.77;;;17.37;;
19414;SDS011;9843;48.882;12.592;2023-03-04T13:53:21;23.20;;;18.57;;
19414;SDS011;9843;48.882;12.592;2023-03-04T13:58:34;37.83;;;24.13;;
19414;SDS011;9843;48.882;12.592;2023-03-04T14:01:02;22.63;;;17.50;;
19414;SDS011;9843;48.882;12.592;2023-03-04T14:03:31;24.33;;;14.83;;
19414;SDS011;9843;48.882;12.592;2023-03-04T14:06:10;27.83;;;18.90;;
19414;SDS011;9843;48.882;12.592;2023-03-04T14:08:39;25.63;;;19.63;;
19414;SDS011;9843;48.882;12.592;2023-03-04T14:11:09;26.17;;;17.67;;
19414;SDS011;9843;48.882;12.592;2023-03-04T14:13:37;29.27;;;18.10;;
19414;SDS011;9843;48.882;12.592;2023-03-04T14:16:05;26.50;;;19.20;;
19414;SDS011;9843;48.882;12.592;2023-03-04T14:18:32;24.70;;;19.47;;
19414;SDS011;9843;48.882;12.592;2023-03-04T14:20:59;28.10;;;19.97;;
19414;SDS011;9843;48.882;12.592;2023-03-04T14:23:27;26.13;;;19.83;;
19414;SDS011;9843;48.882;12.592;2023-03-04T14:26:09;28.03;;;21.33;;
19414;SDS011;9843;48.882;12.592;2023-03-04T14:28:43;30.83;;;20.03;;
19414;SDS011;9843;48.882;12.592;2023-03-04T14:31:14;39.70;;;21.97;;
19414;SDS011;9843;48.882;12.592;2023-03-04T14:33:42;33.83;;;21.30;;
19414;SDS011;9843;48.882;12.592;2023-03-04T14:36:13;28.77;;;21.53;;
19414;SDS011;9843;48.882;12.592;2023-03-04T14:38:41;30.70;;;20.00;;
19414;SDS011;9843;48.882;12.592;2023-03-04T14:41:11;24.93;;;19.30;;
19414;SDS011;9843;48.882;12.592;2023-03-04T14:43:42;30.30;;;22.43;;
19414;SDS011;9843;48.882;12.592;2023-03-04T14:46:12;27.77;;;19.33;;